createdAt,value
2018-12-03T00:00:20.458Z,1.43
2018-12-03T00:02:50.318Z,2.13
2018-12-03T00:05:18.797Z,1.63
2018-12-03T00:07:47.233Z,1.57
2018-12-03T00:10:16.950Z,2.20
2018-12-03T00:12:46.293Z,1.33
2018-12-03T00:15:14.898Z,2.67
2018-12-03T00:17:43.567Z,3.23
2018-12-03T00:20:12.035Z,2.43
2018-12-03T00:22:40.571Z,1.43
2018-12-03T00:25:09.174Z,1.57
2018-12-03T00:27:37.694Z,2.93
2018-12-03T00:30:09.221Z,2.33
2018-12-03T00:32:37.986Z,1.70
2018-12-03T00:35:08.397Z,3.13
2018-12-03T00:37:37.142Z,2.40
2018-12-03T00:40:06.731Z,1.50
2018-12-03T00:42:35.639Z,1.70
2018-12-03T00:45:04.271Z,1.57
2018-12-03T00:47:32.690Z,0.90
2018-12-03T00:50:01.253Z,1.63
2018-12-03T00:52:29.751Z,1.13
2018-12-03T00:54:58.548Z,1.00
2018-12-03T00:57:26.988Z,1.37
2018-12-03T00:59:55.492Z,1.07
2018-12-03T01:02:24.784Z,1.30
2018-12-03T01:04:53.755Z,1.03
2018-12-03T01:07:22.566Z,1.77
2018-12-03T01:09:51.095Z,4.17
2018-12-03T01:12:19.612Z,1.30
2018-12-03T01:14:48.112Z,2.93
2018-12-03T01:17:16.559Z,3.90
2018-12-03T01:19:45.039Z,1.87
2018-12-03T01:22:13.486Z,2.40
2018-12-03T01:24:42.093Z,3.43
2018-12-03T01:27:10.547Z,4.87
2018-12-03T01:29:38.987Z,2.00
2018-12-03T01:32:07.434Z,1.60
2018-12-03T01:34:35.858Z,1.90
2018-12-03T01:37:04.334Z,1.23
2018-12-03T01:39:32.763Z,2.40
2018-12-03T01:42:01.219Z,3.13
2018-12-03T01:44:29.738Z,3.10
2018-12-03T01:46:58.421Z,4.03
2018-12-03T01:49:27.097Z,3.97
2018-12-03T01:51:59.626Z,5.33
2018-12-03T01:54:28.055Z,2.07
2018-12-03T01:56:56.506Z,4.57
2018-12-03T01:59:24.942Z,4.40
2018-12-03T02:01:53.439Z,2.47
2018-12-03T02:04:21.905Z,2.03
2018-12-03T02:06:50.500Z,4.87
2018-12-03T02:09:18.905Z,5.30
2018-12-03T02:11:47.348Z,5.33
2018-12-03T02:14:15.817Z,3.30
2018-12-03T02:16:44.269Z,7.10
2018-12-03T02:19:12.714Z,3.07
2018-12-03T02:21:41.246Z,2.23
2018-12-03T02:24:09.694Z,5.93
2018-12-03T02:26:38.163Z,6.77
2018-12-03T02:29:06.605Z,7.13
2018-12-03T02:31:35.047Z,8.30
2018-12-03T02:34:03.527Z,4.03
2018-12-03T02:36:31.951Z,9.33
2018-12-03T02:39:00.423Z,5.50
2018-12-03T02:41:28.853Z,8.60
2018-12-03T02:43:57.284Z,7.23
2018-12-03T02:46:25.722Z,9.23
2018-12-03T02:48:54.174Z,4.67
2018-12-03T02:51:22.638Z,9.17
2018-12-03T02:53:51.041Z,6.97
2018-12-03T02:56:19.450Z,6.50
2018-12-03T02:58:47.954Z,9.30
2018-12-03T03:01:16.419Z,9.60
2018-12-03T03:03:44.861Z,7.60
2018-12-03T03:06:13.411Z,10.13
2018-12-03T03:08:41.829Z,6.50
2018-12-03T03:11:10.271Z,5.20
2018-12-03T03:13:38.717Z,6.70
2018-12-03T03:16:07.155Z,5.37
2018-12-03T03:18:35.574Z,5.47
2018-12-03T03:21:04.001Z,5.03
2018-12-03T03:23:32.424Z,4.40
2018-12-03T03:26:00.845Z,4.10
2018-12-03T03:28:29.271Z,4.03
2018-12-03T03:30:57.679Z,7.23
2018-12-03T03:33:26.104Z,4.80
2018-12-03T03:35:54.538Z,3.13
2018-12-03T03:38:22.987Z,4.60
2018-12-03T03:40:51.868Z,4.20
2018-12-03T03:43:20.293Z,6.63
2018-12-03T03:45:48.690Z,6.03
2018-12-03T03:48:17.141Z,3.57
2018-12-03T03:50:45.560Z,5.53
2018-12-03T03:53:14.015Z,5.57
2018-12-03T03:55:42.425Z,4.70
2018-12-03T03:58:10.833Z,6.50
2018-12-03T04:00:39.268Z,4.33
2018-12-03T04:03:07.695Z,8.03
2018-12-03T04:05:36.111Z,7.17
2018-12-03T04:08:04.614Z,4.43
2018-12-03T04:10:33.040Z,2.57
2018-12-03T04:13:01.498Z,7.60
2018-12-03T04:15:29.901Z,2.30
2018-12-03T04:17:58.343Z,1.97
2018-12-03T04:20:26.884Z,4.27
2018-12-03T04:22:55.692Z,3.00
2018-12-03T04:25:24.131Z,6.17
2018-12-03T04:27:52.566Z,6.67
2018-12-03T04:30:21.883Z,3.87
2018-12-03T04:32:51.613Z,3.63
2018-12-03T04:35:20.059Z,2.30
2018-12-03T04:37:48.531Z,1.73
2018-12-03T04:40:17.441Z,4.53
2018-12-03T04:42:45.911Z,3.63
2018-12-03T04:45:17.412Z,3.80
2018-12-03T04:47:46.828Z,4.07
2018-12-03T04:50:17.307Z,1.47
2018-12-03T04:52:45.734Z,3.03
2018-12-03T04:55:15.821Z,2.33
2018-12-03T04:57:44.258Z,2.40
2018-12-03T05:00:14.834Z,4.37
2018-12-03T05:02:44.001Z,3.70
2018-12-03T05:05:12.460Z,3.27
2018-12-03T05:07:40.889Z,2.93
2018-12-03T05:10:13.671Z,3.23
2018-12-03T05:12:42.991Z,2.40
2018-12-03T05:15:12.553Z,6.23
2018-12-03T05:17:41.217Z,2.10
2018-12-03T05:20:11.067Z,5.27
2018-12-03T05:22:39.847Z,1.67
2018-12-03T05:25:10.399Z,1.27
2018-12-03T05:27:38.930Z,4.00
2018-12-03T05:30:11.191Z,3.93
2018-12-03T05:32:40.057Z,1.90
2018-12-03T05:35:11.179Z,4.23
2018-12-03T05:37:39.663Z,4.70
2018-12-03T05:40:17.957Z,2.60
2018-12-03T05:42:46.525Z,2.20
2018-12-03T05:45:14.970Z,3.23
2018-12-03T05:47:43.454Z,3.07
2018-12-03T05:50:13.169Z,2.17
2018-12-03T05:52:41.803Z,2.80
2018-12-03T05:55:11.435Z,3.43
2018-12-03T05:57:39.893Z,1.47
2018-12-03T06:00:23.901Z,4.00
2018-12-03T06:02:52.477Z,3.27
2018-12-03T06:05:20.893Z,1.10
2018-12-03T06:07:49.339Z,5.13
2018-12-03T06:10:20.897Z,3.73
2018-12-03T06:12:49.502Z,3.47
2018-12-03T06:15:18.953Z,1.27
2018-12-03T06:17:48.579Z,3.17
2018-12-03T06:20:18.041Z,3.83
2018-12-03T06:22:47.157Z,2.90
2018-12-03T06:25:17.235Z,2.77
2018-12-03T06:27:45.710Z,3.03
2018-12-03T06:30:17.281Z,6.37
2018-12-03T06:32:45.746Z,3.93
2018-12-03T06:35:15.185Z,6.93
2018-12-03T06:37:43.682Z,6.77
2018-12-03T06:40:16.329Z,13.53
2018-12-03T06:42:44.803Z,8.60
2018-12-03T06:45:14.559Z,4.60
2018-12-03T06:47:45.125Z,7.87
2018-12-03T06:50:13.530Z,6.23
2018-12-03T06:52:41.949Z,6.03
2018-12-03T06:55:10.905Z,5.37
2018-12-03T06:57:39.343Z,5.20
2018-12-03T07:00:11.845Z,6.83
2018-12-03T07:02:40.404Z,5.03
2018-12-03T07:05:10.105Z,6.37
2018-12-03T07:07:38.934Z,6.63
2018-12-03T07:10:13.138Z,6.07
2018-12-03T07:12:41.839Z,7.40
2018-12-03T07:15:12.869Z,10.17
2018-12-03T07:17:41.345Z,6.00
2018-12-03T07:20:11.218Z,8.83
2018-12-03T07:22:39.990Z,8.23
2018-12-03T07:25:09.632Z,5.37
2018-12-03T07:27:38.191Z,9.37
2018-12-03T07:30:14.488Z,9.57
2018-12-03T07:32:43.194Z,8.03
2018-12-03T07:35:12.007Z,9.40
2018-12-03T07:37:40.450Z,6.93
2018-12-03T07:40:10.290Z,8.83
2018-12-03T07:42:38.988Z,5.07
2018-12-03T07:45:10.439Z,8.97
2018-12-03T07:47:38.966Z,8.93
2018-12-03T07:50:09.850Z,15.73
2018-12-03T07:52:38.489Z,9.20
2018-12-03T07:55:08.844Z,10.27
2018-12-03T07:57:37.462Z,13.57
2018-12-03T08:00:10.516Z,7.87
2018-12-03T08:02:38.938Z,8.60
2018-12-03T08:05:08.659Z,8.10
2018-12-03T08:07:37.152Z,11.73
2018-12-03T08:10:10.965Z,10.53
2018-12-03T08:12:39.418Z,13.43
2018-12-03T08:15:12.405Z,10.43
2018-12-03T08:17:41.078Z,13.53
2018-12-03T08:20:13.703Z,19.27
2018-12-03T08:22:42.250Z,9.30
2018-12-03T08:25:10.725Z,14.50
2018-12-03T08:27:39.171Z,17.17
2018-12-03T08:30:10.670Z,13.37
2018-12-03T08:32:39.101Z,17.23
2018-12-03T08:35:10.314Z,10.53
2018-12-03T08:37:38.903Z,17.63
2018-12-03T08:40:17.760Z,15.57
2018-12-03T08:42:48.311Z,10.23
2018-12-03T08:45:16.910Z,15.37
2018-12-03T08:47:45.642Z,20.17
2018-12-03T08:50:17.726Z,9.07
2018-12-03T08:52:46.210Z,12.93
2018-12-03T08:55:14.704Z,18.90
2018-12-03T08:57:43.138Z,14.27
2018-12-03T09:00:13.272Z,19.17
2018-12-03T09:02:57.170Z,14.50
2018-12-03T09:05:26.807Z,13.03
2018-12-03T09:07:55.295Z,17.17
2018-12-03T09:10:24.066Z,24.37
2018-12-03T09:12:52.939Z,18.23
2018-12-03T09:15:21.423Z,21.60
2018-12-03T09:17:49.869Z,19.10
2018-12-03T09:20:18.319Z,18.57
2018-12-03T09:22:46.831Z,14.17
2018-12-03T09:25:23.279Z,17.33
2018-12-03T09:27:51.775Z,21.60
2018-12-03T09:30:20.242Z,16.87
2018-12-03T09:32:48.698Z,17.23
2018-12-03T09:35:17.186Z,16.73
2018-12-03T09:37:45.627Z,14.80
2018-12-03T09:40:17.385Z,18.63
2018-12-03T09:42:45.838Z,15.53
2018-12-03T09:45:16.569Z,22.37
2018-12-03T09:47:45.335Z,23.20
2018-12-03T09:50:21.162Z,15.37
2018-12-03T09:52:49.718Z,18.77
2018-12-03T09:55:19.647Z,19.70
2018-12-03T09:57:56.901Z,24.03
2018-12-03T10:00:25.650Z,13.60
2018-12-03T10:02:54.764Z,15.63
2018-12-03T10:05:24.530Z,12.47
2018-12-03T10:07:52.987Z,15.37
2018-12-03T10:10:21.419Z,13.00
2018-12-03T10:12:50.023Z,15.30
2018-12-03T10:15:18.586Z,17.47
2018-12-03T10:17:50.071Z,17.00
2018-12-03T10:20:18.512Z,12.17
2018-12-03T10:22:49.752Z,14.60
2018-12-03T10:25:18.268Z,17.00
2018-12-03T10:27:46.725Z,10.17
2018-12-03T10:30:17.557Z,11.37
2018-12-03T10:32:47.276Z,13.67
2018-12-03T10:35:15.730Z,15.83
2018-12-03T10:37:44.195Z,14.93
2018-12-03T10:40:18.133Z,13.03
2018-12-03T10:42:47.786Z,16.63
2018-12-03T10:45:26.004Z,14.87
2018-12-03T10:47:49.636Z,13.33
2018-12-03T10:50:22.219Z,9.43
2018-12-03T10:52:47.869Z,15.03
2018-12-03T10:55:16.328Z,8.53
2018-12-03T10:57:45.547Z,13.63
2018-12-03T11:00:22.322Z,11.93
2018-12-03T11:02:57.808Z,15.43
2018-12-03T11:05:33.963Z,16.50
2018-12-03T11:08:02.573Z,13.20
2018-12-03T11:10:33.100Z,9.30
2018-12-03T11:13:01.678Z,15.57
2018-12-03T11:15:30.122Z,14.00
2018-12-03T11:17:59.352Z,14.40
2018-12-03T11:20:27.788Z,11.80
2018-12-03T11:22:56.304Z,13.90
2018-12-03T11:25:29.346Z,13.20
2018-12-03T11:27:59.202Z,10.47
2018-12-03T11:30:27.776Z,17.67
2018-12-03T11:32:56.256Z,16.83
2018-12-03T11:35:26.607Z,16.17
2018-12-03T11:38:03.475Z,17.57
2018-12-03T11:40:42.958Z,12.50
2018-12-03T11:43:11.739Z,10.60
2018-12-03T11:45:40.223Z,18.63
2018-12-03T11:48:08.784Z,16.67
2018-12-03T11:50:37.306Z,24.37
2018-12-03T11:53:05.832Z,13.90
2018-12-03T11:55:34.275Z,18.73
2018-12-03T11:58:02.776Z,16.27
2018-12-03T12:00:31.334Z,18.77
2018-12-03T12:02:59.824Z,19.90
2018-12-03T12:05:28.315Z,17.63
2018-12-03T12:07:56.833Z,15.77
2018-12-03T12:10:27.295Z,18.97
2018-12-03T12:12:55.742Z,24.20
2018-12-03T12:15:24.369Z,17.77
2018-12-03T12:17:52.783Z,11.73
2018-12-03T12:20:21.231Z,13.77
2018-12-03T12:22:49.729Z,20.03
2018-12-03T12:25:18.181Z,16.83
2018-12-03T12:27:51.727Z,15.33
2018-12-03T12:30:20.202Z,17.33
2018-12-03T12:32:48.655Z,15.77
2018-12-03T12:35:17.105Z,16.50
2018-12-03T12:37:45.567Z,21.40
2018-12-03T12:40:14.267Z,19.33
2018-12-03T12:42:43.438Z,20.77
2018-12-03T12:45:17.458Z,16.07
2018-12-03T12:47:46.078Z,17.57
2018-12-03T12:50:16.795Z,16.50
2018-12-03T12:52:45.284Z,17.80
2018-12-03T12:55:13.739Z,15.47
2018-12-03T12:57:42.233Z,15.73
2018-12-03T13:00:16.840Z,15.77
2018-12-03T13:02:47.655Z,11.27
2018-12-03T13:05:16.227Z,15.23
2018-12-03T13:07:44.667Z,11.50
2018-12-03T13:10:14.834Z,12.20
2018-12-03T13:12:43.626Z,15.27
2018-12-03T13:15:13.618Z,13.80
2018-12-03T13:17:44.390Z,16.03
2018-12-03T13:20:14.391Z,15.70
2018-12-03T13:22:42.882Z,13.17
2018-12-03T13:25:23.322Z,20.37
2018-12-03T13:28:15.930Z,18.63
2018-12-03T13:30:59.645Z,17.07
2018-12-03T13:33:43.316Z,17.83
2018-12-03T13:36:11.810Z,18.60
2018-12-03T13:38:48.407Z,17.10
2018-12-03T13:41:25.476Z,14.23
2018-12-03T13:43:55.262Z,14.73
2018-12-03T13:46:24.231Z,21.83
2018-12-03T13:48:52.867Z,12.77
2018-12-03T13:51:21.912Z,15.97
2018-12-03T13:54:02.666Z,15.53
2018-12-03T13:56:33.543Z,20.70
2018-12-03T13:59:02.211Z,15.67
2018-12-03T14:01:31.282Z,11.90
2018-12-03T14:04:05.010Z,15.87
2018-12-03T14:07:15.335Z,10.50
2018-12-03T14:10:07.334Z,12.63
2018-12-03T14:12:42.443Z,14.47
2018-12-03T14:16:30.258Z,11.03
2018-12-03T14:19:03.449Z,15.23
2018-12-03T14:21:36.554Z,10.67
2018-12-03T14:24:11.359Z,6.50
2018-12-03T14:26:39.866Z,4.50
2018-12-03T14:29:08.785Z,7.57
2018-12-03T14:31:37.322Z,8.70
2018-12-03T14:34:06.425Z,8.03
2018-12-03T14:36:34.932Z,8.63
2018-12-03T14:39:03.668Z,4.63
2018-12-03T14:41:32.143Z,11.43
2018-12-03T14:44:00.714Z,5.20
2018-12-03T14:46:29.204Z,11.13
2018-12-03T14:48:57.656Z,8.73
2018-12-03T14:51:26.518Z,6.30
2018-12-03T14:53:55.184Z,7.70
2018-12-03T14:56:23.667Z,6.30
2018-12-03T14:58:52.207Z,7.93
2018-12-03T15:01:20.884Z,8.07
2018-12-03T15:03:49.395Z,10.30
2018-12-03T15:06:17.893Z,11.53
2018-12-03T15:08:46.378Z,8.83
2018-12-03T15:11:14.958Z,8.63
2018-12-03T15:13:43.582Z,9.93
2018-12-03T15:16:12.011Z,12.67
2018-12-03T15:18:40.434Z,8.27
2018-12-03T15:21:08.911Z,8.80
2018-12-03T15:23:37.369Z,9.83
2018-12-03T15:26:05.862Z,9.23
2018-12-03T15:28:34.366Z,9.43
2018-12-03T15:31:02.851Z,9.67
2018-12-03T15:33:31.303Z,8.57
2018-12-03T15:35:59.826Z,11.43
2018-12-03T15:38:28.264Z,11.67
2018-12-03T15:40:56.767Z,6.70
2018-12-03T15:43:25.463Z,9.93
2018-12-03T15:45:53.931Z,8.48
2018-12-03T15:48:22.367Z,11.53
2018-12-03T15:50:50.782Z,8.20
2018-12-03T15:53:19.337Z,12.67
2018-12-03T15:55:47.844Z,13.30
2018-12-03T15:58:16.297Z,9.00
2018-12-03T16:00:44.750Z,23.63
2018-12-03T16:03:13.238Z,13.07
2018-12-03T16:05:42.350Z,15.77
2018-12-03T16:08:10.228Z,13.83
2018-12-03T16:10:38.670Z,14.43
2018-12-03T16:13:07.098Z,7.50
2018-12-03T16:15:35.278Z,15.63
2018-12-03T16:18:03.804Z,16.30
2018-12-03T16:20:32.250Z,14.77
2018-12-03T16:23:00.739Z,8.60
2018-12-03T16:25:29.189Z,11.57
2018-12-03T16:27:57.650Z,11.87
2018-12-03T16:30:26.357Z,13.17
2018-12-03T16:32:54.912Z,9.87
2018-12-03T16:35:23.436Z,8.70
2018-12-03T16:37:51.964Z,10.10
2018-12-03T16:40:20.537Z,8.20
2018-12-03T16:42:48.971Z,9.03
2018-12-03T16:45:17.427Z,9.33
2018-12-03T16:47:45.875Z,8.80
2018-12-03T16:50:14.363Z,9.63
2018-12-03T16:52:42.834Z,49.03
2018-12-03T16:55:11.279Z,5.37
2018-12-03T16:57:39.799Z,6.07
2018-12-03T17:00:11.933Z,8.33
2018-12-03T17:02:40.423Z,7.77
2018-12-03T17:05:08.985Z,9.53
2018-12-03T17:07:38.354Z,7.63
2018-12-03T17:10:11.150Z,6.60
2018-12-03T17:12:39.726Z,10.30
2018-12-03T17:15:08.226Z,9.83
2018-12-03T17:17:36.713Z,6.47
2018-12-03T17:20:10.126Z,7.30
2018-12-03T17:22:44.162Z,6.93
2018-12-03T17:25:16.256Z,7.07
2018-12-03T17:27:44.737Z,3.90
2018-12-03T17:30:13.229Z,6.07
2018-12-03T17:32:41.679Z,7.60
2018-12-03T17:35:10.138Z,8.70
2018-12-03T17:37:38.625Z,11.13
2018-12-03T17:40:09.659Z,7.93
2018-12-03T17:42:38.298Z,7.83
2018-12-03T17:45:12.239Z,5.37
2018-12-03T17:47:41.295Z,6.53
2018-12-03T17:50:09.800Z,10.30
2018-12-03T17:52:38.291Z,7.27
2018-12-03T17:55:07.311Z,4.33
2018-12-03T17:57:35.799Z,11.47
2018-12-03T18:00:06.114Z,7.83
2018-12-03T18:02:34.598Z,10.67
2018-12-03T18:05:03.045Z,11.33
2018-12-03T18:07:31.491Z,12.77
2018-12-03T18:09:59.933Z,8.10
2018-12-03T18:12:28.479Z,11.40
2018-12-03T18:14:56.983Z,8.50
2018-12-03T18:17:25.465Z,10.60
2018-12-03T18:19:53.874Z,11.60
2018-12-03T18:22:22.325Z,7.17
2018-12-03T18:24:50.777Z,12.33
2018-12-03T18:27:19.816Z,7.90
2018-12-03T18:29:48.396Z,13.20
2018-12-03T18:32:16.874Z,11.57
2018-12-03T18:34:45.287Z,9.40
2018-12-03T18:37:13.751Z,8.50
2018-12-03T18:39:42.308Z,12.67
2018-12-03T18:42:10.811Z,16.07
2018-12-03T18:44:39.265Z,14.27
2018-12-03T18:47:13.016Z,14.93
2018-12-03T18:49:45.300Z,24.10
2018-12-03T18:52:15.070Z,15.20
2018-12-03T18:54:43.752Z,12.93
2018-12-03T18:57:12.191Z,12.10
2018-12-03T18:59:40.643Z,16.90
2018-12-03T19:02:09.083Z,19.57
2018-12-03T19:04:37.672Z,12.27
2018-12-03T19:07:06.139Z,13.97
2018-12-03T19:09:34.647Z,15.70
2018-12-03T19:12:03.131Z,10.43
2018-12-03T19:14:31.577Z,9.33
2018-12-03T19:17:00.064Z,10.37
2018-12-03T19:19:28.503Z,13.57
2018-12-03T19:21:56.976Z,19.23
2018-12-03T19:24:25.445Z,17.57
2018-12-03T19:26:53.942Z,14.53
2018-12-03T19:29:22.443Z,18.03
2018-12-03T19:31:50.975Z,15.60
2018-12-03T19:34:19.438Z,19.33
2018-12-03T19:36:47.871Z,17.43
2018-12-03T19:39:16.367Z,18.03
2018-12-03T19:41:44.811Z,17.23
2018-12-03T19:44:13.387Z,12.57
2018-12-03T19:46:42.774Z,20.07
2018-12-03T19:49:11.337Z,18.80
2018-12-03T19:51:39.860Z,20.30
2018-12-03T19:54:08.415Z,21.60
2018-12-03T19:56:36.900Z,20.93
2018-12-03T19:59:05.431Z,18.77
2018-12-03T20:01:33.918Z,29.97
2018-12-03T20:04:02.413Z,25.90
2018-12-03T20:06:30.967Z,24.50
2018-12-03T20:08:59.531Z,20.17
2018-12-03T20:11:28.140Z,22.20
2018-12-03T20:13:56.652Z,16.13
2018-12-03T20:16:25.146Z,19.37
2018-12-03T20:18:53.689Z,25.23
2018-12-03T20:21:24.377Z,23.20
2018-12-03T20:23:58.028Z,19.67
2018-12-03T20:26:33.449Z,14.63
2018-12-03T20:29:13.302Z,17.57
2018-12-03T20:31:51.728Z,19.77
2018-12-03T20:34:29.738Z,21.63
2018-12-03T20:37:11.172Z,19.07
2018-12-03T20:39:54.853Z,25.47
2018-12-03T20:42:26.415Z,28.17
2018-12-03T20:45:09.511Z,19.60
2018-12-03T20:47:43.725Z,23.70
2018-12-03T20:50:58.395Z,20.47
2018-12-03T20:53:30.431Z,25.27
2018-12-03T20:56:00.699Z,15.73
2018-12-03T20:58:29.223Z,22.37
2018-12-03T21:00:57.855Z,27.90
2018-12-03T21:03:26.573Z,31.33
2018-12-03T21:05:55.170Z,20.80
2018-12-03T21:08:23.621Z,23.53
2018-12-03T21:10:52.163Z,22.23
2018-12-03T21:13:21.004Z,24.07
2018-12-03T21:15:49.498Z,20.60
2018-12-03T21:18:18.715Z,26.60
2018-12-03T21:20:49.578Z,22.47
2018-12-03T21:23:18.848Z,18.10
2018-12-03T21:25:47.340Z,26.17
2018-12-03T21:28:16.615Z,26.43
2018-12-03T21:30:45.134Z,27.13
2018-12-03T21:33:13.668Z,28.77
2018-12-03T21:35:42.339Z,29.70
2018-12-03T21:38:10.984Z,25.57
2018-12-03T21:40:39.570Z,18.50
2018-12-03T21:43:08.331Z,30.40
2018-12-03T21:45:36.927Z,21.10
2018-12-03T21:48:05.497Z,22.07
2018-12-03T21:50:34.015Z,18.53
2018-12-03T21:53:02.633Z,19.63
2018-12-03T21:55:31.145Z,25.10
2018-12-03T21:57:59.847Z,29.77
2018-12-03T22:00:28.345Z,24.03
2018-12-03T22:02:56.908Z,21.67
2018-12-03T22:05:25.472Z,14.20
2018-12-03T22:07:53.995Z,17.20
2018-12-03T22:10:22.485Z,24.10
2018-12-03T22:12:50.974Z,19.70
2018-12-03T22:15:19.486Z,16.47
2018-12-03T22:17:48.081Z,23.70
2018-12-03T22:20:16.693Z,16.30
2018-12-03T22:22:45.151Z,18.33
2018-12-03T22:25:13.743Z,20.70
2018-12-03T22:27:42.194Z,31.10
2018-12-03T22:30:11.203Z,28.97
2018-12-03T22:32:39.790Z,17.87
2018-12-03T22:35:08.368Z,19.67
2018-12-03T22:37:36.939Z,24.13
2018-12-03T22:40:06.182Z,22.33
2018-12-03T22:42:34.667Z,14.53
2018-12-03T22:45:03.252Z,17.67
2018-12-03T22:47:31.702Z,19.23
2018-12-03T22:50:00.194Z,27.93
2018-12-03T22:52:28.853Z,28.83
2018-12-03T22:54:57.494Z,24.47
2018-12-03T22:57:25.936Z,25.43
2018-12-03T22:59:54.430Z,23.43
2018-12-03T23:02:22.961Z,23.40
2018-12-03T23:04:51.513Z,20.53
2018-12-03T23:07:20.033Z,27.37
2018-12-03T23:09:48.505Z,21.77
2018-12-03T23:12:16.991Z,22.27
2018-12-03T23:14:45.503Z,25.60
2018-12-03T23:17:14.030Z,25.40
2018-12-03T23:19:42.632Z,16.27
2018-12-03T23:22:11.070Z,26.43
2018-12-03T23:24:39.608Z,18.47
2018-12-03T23:27:08.097Z,16.00
2018-12-03T23:29:36.579Z,25.10
2018-12-03T23:32:05.091Z,21.63
2018-12-03T23:34:33.563Z,23.07
2018-12-03T23:37:02.113Z,18.70
2018-12-03T23:39:30.623Z,23.33
2018-12-03T23:41:59.055Z,20.43
2018-12-03T23:44:27.606Z,18.07
2018-12-03T23:46:56.254Z,16.60
2018-12-03T23:49:24.731Z,24.03
2018-12-03T23:51:53.458Z,21.07
2018-12-03T23:54:21.973Z,17.37
2018-12-03T23:56:50.434Z,22.23
2018-12-03T23:59:18.875Z,13.07
